Time;durP1;ratioP1;P1;durP2;ratioP2;P2;SDS_P1;SDS_P2;PMS_P1;PMS_P2;Temp;Humidity;BMP_temperature;BMP_pressure;BME280_temperature;BME280_humidity;BME280_pressure;Samples;Min_cycle;Max_cycle;Signal;HPM_P1;HPM_P2
2022/12/13 00:01:37;;;;;;;16.37;11.93;;;;;;;5.56;100.00;99555.20;1664438;86;21625;-60
2022/12/13 00:04:05;;;;;;;19.23;13.20;;;;;;;5.52;100.00;99551.34;1660701;85;21395;-60
2022/12/13 00:06:33;;;;;;;15.20;10.97;;;;;;;5.52;100.00;99555.22;1665308;86;21668;-60
2022/12/13 00:09:00;;;;;;;16.03;11.97;;;;;;;5.57;100.00;99546.50;1665237;86;21292;-62
2022/12/13 00:11:29;;;;;;;12.70;10.90;;;;;;;5.60;100.00;99561.66;1664466;85;21338;-67
2022/12/13 00:13:56;;;;;;;19.93;12.83;;;;;;;5.58;100.00;99558.44;1664952;86;21394;-61
2022/12/13 00:16:24;;;;;;;16.37;11.80;;;;;;;5.61;100.00;99567.66;1665137;86;21781;-60
2022/12/13 00:18:57;;;;;;;17.12;13.20;;;;;;;5.62;100.00;99564.09;1665264;86;21399;-60
2022/12/13 00:21:31;;;;;;;16.00;11.60;;;;;;;5.62;100.00;99558.91;1664395;86;21150;-67
2022/12/13 00:23:58;;;;;;;15.47;11.47;;;;;;;5.65;100.00;99562.95;1665287;86;21291;-60
2022/12/13 00:26:28;;;;;;;16.80;11.70;;;;;;;5.61;100.00;99563.28;1665020;86;21165;-62
2022/12/13 00:28:57;;;;;;;16.63;13.07;;;;;;;5.62;100.00;99558.91;1638255;86;21126;-60
2022/12/13 00:31:25;;;;;;;16.50;13.07;;;;;;;5.65;100.00;99560.38;1637954;86;21266;-67
2022/12/13 00:33:52;;;;;;;15.73;12.63;;;;;;;5.64;100.00;99561.32;1664669;86;21218;-60
2022/12/13 00:36:20;;;;;;;16.80;12.20;;;;;;;5.57;100.00;99549.09;1664984;86;21276;-61
2022/12/13 00:38:59;;;;;;;16.77;12.60;;;;;;;5.56;100.00;99553.91;1665090;86;21233;-60
2022/12/13 00:41:17;;;;;;;16.93;12.35;;;;;;;5.58;100.00;99550.69;1662301;86;21311;-67
2022/12/13 00:43:45;;;;;;;16.93;12.53;;;;;;;5.58;100.00;99545.52;1683619;83;21485;-61
2022/12/13 00:46:16;;;;;;;18.37;12.77;;;;;;;5.59;100.00;99549.70;1693385;84;21885;-60
2022/12/13 00:48:44;;;;;;;19.95;14.20;;;;;;;5.56;100.00;99544.86;1693355;84;28997;-61
2022/12/13 00:51:11;;;;;;;18.03;12.13;;;;;;;5.57;100.00;99552.97;1692368;84;20955;-61
2022/12/13 00:53:39;;;;;;;17.47;13.07;;;;;;;5.54;100.00;99557.17;1692450;84;21320;-61
2022/12/13 00:56:20;;;;;;;17.40;12.53;;;;;;;5.58;100.00;99557.64;1693077;84;21382;-61
2022/12/13 00:58:48;;;;;;;17.53;13.97;;;;;;;5.58;100.00;99553.27;1692717;84;21804;-66
2022/12/13 01:01:17;;;;;;;17.37;13.00;;;;;;;5.59;100.00;99565.22;1693044;84;21308;-67
2022/12/13 01:03:46;;;;;;;18.53;15.50;;;;;;;5.58;100.00;99568.78;1664244;83;20892;-61
2022/12/13 01:06:19;;;;;;;21.83;15.33;;;;;;;5.58;100.00;99565.40;1693151;84;21352;-62
2022/12/13 01:08:47;;;;;;;18.53;14.40;;;;;;;5.59;100.00;99571.69;1692653;84;21262;-61
2022/12/13 01:11:14;;;;;;;20.53;14.50;;;;;;;5.60;100.00;99568.11;1692892;84;21514;-67
2022/12/13 01:13:42;;;;;;;20.67;15.30;;;;;;;5.63;100.00;99562.30;1693075;84;21149;-61
2022/12/13 01:16:10;;;;;;;18.43;14.90;;;;;;;5.61;100.00;99555.53;1693145;84;20983;-62
2022/12/13 01:18:39;;;;;;;17.93;13.27;;;;;;;5.65;100.00;99565.55;1693022;84;21273;-61
2022/12/13 01:21:28;;;;;;;22.77;16.23;;;;;;;5.64;100.00;99565.20;1692819;84;21264;-61
2022/12/13 01:24:02;;;;;;;18.87;14.20;;;;;;;5.63;100.00;99562.30;1675313;85;21162;-61
2022/12/13 01:26:29;;;;;;;22.27;15.63;;;;;;;5.58;100.00;99558.94;1675110;85;21541;-67
2022/12/13 01:28:57;;;;;;;20.57;15.80;;;;;;;5.58;100.00;99566.20;1674658;85;21095;-68
2022/12/13 01:31:24;;;;;;;22.30;15.80;;;;;;;5.58;100.00;99572.66;1675191;85;22808;-62
2022/12/13 01:33:52;;;;;;;18.00;13.53;;;;;;;5.56;100.00;99575.89;1675390;84;21408;-61
2022/12/13 01:36:20;;;;;;;19.53;13.97;;;;;;;5.55;100.00;99578.16;1675277;85;21367;-61
2022/12/13 01:38:48;;;;;;;18.77;14.23;;;;;;;5.57;100.00;99576.72;1674930;84;21226;-66
2022/12/13 01:41:17;;;;;;;21.37;15.07;;;;;;;5.54;100.00;99573.97;1675122;85;21344;-61
2022/12/13 01:43:51;;;;;;;18.13;13.83;;;;;;;5.53;100.00;99580.58;1675453;84;21812;-61
2022/12/13 01:46:19;;;;;;;21.27;16.20;;;;;;;5.54;100.00;99586.90;1675554;85;21728;-61
2022/12/13 01:49:06;;;;;;;20.70;14.80;;;;;;;5.52;100.00;99586.25;1674423;85;21724;-64
2022/12/13 01:51:48;;;;;;;19.47;13.80;;;;;;;5.55;100.00;99583.33;1675102;85;21152;-61
2022/12/13 01:54:18;;;;;;;22.65;15.75;;;;;;;5.56;100.00;99590.59;1674505;84;21212;-63
2022/12/13 01:56:48;;;;;;;21.70;16.57;;;;;;;5.54;100.00;99584.80;1674809;85;21152;-62
2022/12/13 01:59:17;;;;;;;21.27;15.25;;;;;;;5.54;100.00;99581.73;1675436;84;21321;-62
2022/12/13 02:01:46;;;;;;;22.20;16.10;;;;;;;5.56;100.00;99584.13;1675336;85;21256;-62
2022/12/13 02:04:15;;;;;;;21.77;15.53;;;;;;;5.53;100.00;99585.75;1674302;84;21215;-64
2022/12/13 02:06:43;;;;;;;21.30;15.30;;;;;;;5.53;100.00;99572.83;1675084;85;21785;-61
2022/12/13 02:09:12;;;;;;;20.13;15.63;;;;;;;5.52;100.00;99574.61;1675316;84;21198;-61
2022/12/13 02:11:41;;;;;;;19.73;15.17;;;;;;;5.55;100.00;99574.77;1627430;85;21426;-67
2022/12/13 02:14:10;;;;;;;24.63;16.40;;;;;;;5.52;100.00;99572.52;1675186;84;21376;-65
2022/12/13 02:16:46;;;;;;;21.20;16.33;;;;;;;5.51;100.00;99572.20;1674428;84;21156;-61
2022/12/13 02:19:55;;;;;;;21.13;15.77;;;;;;;5.50;100.00;99575.77;1675447;85;21163;-62
2022/12/13 02:22:54;;;;;;;21.20;15.07;;;;;;;5.52;100.00;99582.37;1675291;85;21318;-62
2022/12/13 02:25:38;;;;;;;24.43;16.47;;;;;;;5.49;100.00;99580.14;1674570;83;21162;-62
2022/12/13 02:28:14;;;;;;;21.90;14.80;;;;;;;5.49;100.00;99586.60;1675352;85;21382;-63
2022/12/13 02:30:43;;;;;;;19.73;14.43;;;;;;;5.51;100.00;99592.39;1675167;85;21318;-61
2022/12/13 02:33:24;;;;;;;19.87;14.40;;;;;;;5.53;100.00;99596.09;1675015;84;21297;-61
2022/12/13 02:36:17;;;;;;;17.23;12.00;;;;;;;5.48;100.00;99607.43;1675456;85;21830;-62
2022/12/13 02:39:21;;;;;;;19.00;14.03;;;;;;;5.48;100.00;99608.23;1656128;85;22572;-61
2022/12/13 02:42:16;;;;;;;18.30;13.50;;;;;;;5.48;100.00;99607.43;1671754;85;21316;-62
2022/12/13 02:44:48;;;;;;;16.23;12.10;;;;;;;5.44;100.00;99606.15;1675430;84;21855;-69
2022/12/13 02:47:20;;;;;;;15.73;12.20;;;;;;;5.44;100.00;99603.08;1674114;84;21279;-61
2022/12/13 02:49:49;;;;;;;;;;;;;;;5.45;100.00;99603.88;1678062;85;21287;-61
2022/12/13 02:52:19;;;;;;;14.03;10.75;;;;;;;5.44;100.00;99597.10;1675374;85;20131;-62
2022/12/13 02:54:47;;;;;;;14.87;10.90;;;;;;;5.42;100.00;99599.03;1657472;84;21920;-68
2022/12/13 02:57:36;;;;;;;14.57;11.80;;;;;;;5.41;100.00;99608.56;1674721;84;21395;-61
2022/12/13 03:00:10;;;;;;;14.77;11.30;;;;;;;5.39;100.00;99597.61;1675232;85;21035;-61
2022/12/13 03:03:17;;;;;;;15.13;12.37;;;;;;;5.41;100.00;99597.43;1674746;84;21757;-61
2022/12/13 03:09:27;;;;;;;13.43;10.77;;;;;;;5.41;100.00;99596.14;1641187;85;21281;-59
2022/12/13 03:15:49;;;;;;;17.23;12.97;;;;;;;5.46;100.00;99605.52;1675580;84;21322;-61
2022/12/13 03:18:19;;;;;;;13.33;10.80;;;;;;;5.49;100.00;99607.74;1675504;84;21368;-60
2022/12/13 03:20:51;;;;;;;15.70;11.40;;;;;;;5.49;100.00;99612.45;1675647;85;21168;-60
2022/12/13 03:23:19;;;;;;;11.20;8.83;;;;;;;5.49;100.00;99621.50;1659829;84;21925;-68
2022/12/13 03:25:48;;;;;;;9.77;6.97;;;;;;;5.44;100.00;99619.87;1644100;87;21219;-64
2022/12/13 03:28:16;;;;;;;10.77;7.00;;;;;;;5.41;100.00;99625.38;1645139;87;21421;-59
2022/12/13 03:30:44;;;;;;;9.27;6.40;;;;;;;5.32;100.00;99622.49;1645088;86;21170;-60
2022/12/13 03:33:12;;;;;;;8.73;4.63;;;;;;;5.30;100.00;99633.47;1645225;87;21237;-60
2022/12/13 03:35:40;;;;;;;5.70;3.93;;;;;;;5.27;100.00;99623.48;1644385;86;21257;-66
2022/12/13 03:38:10;;;;;;;6.03;3.90;;;;;;;5.22;100.00;99631.70;1644944;87;21240;-60
2022/12/13 03:40:37;;;;;;;5.93;4.13;;;;;;;5.20;100.00;99625.11;1645204;87;21168;-61
2022/12/13 03:43:04;;;;;;;4.80;3.10;;;;;;;5.18;100.00;99617.98;1645023;86;21119;-60
2022/12/13 03:45:32;;;;;;;6.62;3.70;;;;;;;5.16;100.00;99613.48;1644857;86;21142;-62
2022/12/13 03:48:00;;;;;;;5.93;3.77;;;;;;;5.18;100.00;99611.04;1644429;87;21167;-64
2022/12/13 03:50:27;;;;;;;5.30;3.30;;;;;;;5.25;100.00;99615.08;1645046;86;21388;-60
2022/12/13 03:52:59;;;;;;;5.20;3.03;;;;;;;5.25;100.00;99618.95;1645021;87;21151;-60
2022/12/13 03:55:26;;;;;;;4.43;2.87;;;;;;;5.30;100.00;99624.42;1644409;86;21787;-59
2022/12/13 03:57:54;;;;;;;5.17;2.90;;;;;;;5.30;100.00;99616.67;1610533;89;21347;-59
2022/12/13 04:00:21;;;;;;;6.33;3.10;;;;;;;5.30;100.00;99611.50;1584479;90;22755;-61
2022/12/13 04:02:49;;;;;;;5.87;3.10;;;;;;;5.32;100.00;99611.67;1611103;88;21254;-61
2022/12/13 04:05:17;;;;;;;5.37;2.50;;;;;;;5.35;100.00;99610.54;1610894;89;21257;-69
2022/12/13 04:07:44;;;;;;;4.53;2.40;;;;;;;5.32;100.00;99625.08;1583491;90;21897;-63
2022/12/13 04:10:11;;;;;;;5.47;2.20;;;;;;;5.32;100.00;99622.00;1611237;88;22627;-62
2022/12/13 04:15:25;;;;;;;5.00;2.60;;;;;;;5.32;100.00;99631.05;1583648;90;21736;-63
2022/12/13 04:17:52;;;;;;;5.03;2.40;;;;;;;5.30;100.00;99625.72;1610835;88;22727;-59
2022/12/13 04:20:19;;;;;;;5.13;2.87;;;;;;;5.30;100.00;99625.72;1611219;88;21110;-59
2022/12/13 04:22:46;;;;;;;5.87;3.97;;;;;;;5.29;100.00;99618.45;1588797;88;21404;-60
2022/12/13 04:25:14;;;;;;;4.93;2.90;;;;;;;5.27;100.00;99624.77;1640332;85;21621;-66
2022/12/13 04:27:42;;;;;;;6.27;3.60;;;;;;;5.23;100.00;99628.66;1674430;85;21112;-59
2022/12/13 04:30:11;;;;;;;7.47;2.97;;;;;;;5.13;100.00;99628.33;1675602;85;21254;-60
2022/12/13 04:32:39;;;;;;;4.93;2.63;;;;;;;5.12;100.00;99624.14;1675840;84;21277;-59
2022/12/13 04:35:07;;;;;;;5.17;2.73;;;;;;;5.13;100.00;99626.23;1675452;85;21190;-59
2022/12/13 04:37:36;;;;;;;6.33;2.77;;;;;;;5.14;100.00;99623.97;1674891;84;21287;-60
2022/12/13 04:40:05;;;;;;;6.37;3.10;;;;;;;5.07;100.00;99626.38;1675325;84;21367;-59
2022/12/13 04:42:32;;;;;;;6.77;3.07;;;;;;;5.06;100.00;99631.23;1675657;84;21854;-60
2022/12/13 04:44:59;;;;;;;8.60;4.00;;;;;;;5.06;100.00;99622.20;1675368;85;21261;-60
2022/12/13 04:47:27;;;;;;;7.73;3.17;;;;;;;5.07;100.00;99619.13;1675018;85;21152;-67
2022/12/13 04:49:54;;;;;;;7.37;3.03;;;;;;;5.11;100.00;99617.37;1674573;84;21332;-60
2022/12/13 04:52:21;;;;;;;7.13;3.83;;;;;;;5.12;100.00;99613.00;1675170;85;21408;-60
2022/12/13 04:54:49;;;;;;;6.20;3.00;;;;;;;5.16;100.00;99614.78;1675308;85;21237;-59
2022/12/13 04:57:17;;;;;;;7.13;3.00;;;;;;;5.18;100.00;99615.41;1675368;85;21124;-67
2022/12/13 04:59:45;;;;;;;8.50;3.93;;;;;;;5.19;100.00;99614.42;1674532;85;21726;-59
2022/12/13 05:02:13;;;;;;;6.57;2.77;;;;;;;5.19;100.00;99620.42;1675400;84;21936;-59
2022/12/13 05:04:40;;;;;;;7.23;3.67;;;;;;;5.18;100.00;99622.66;1675162;85;21386;-60
2022/12/13 05:07:08;;;;;;;9.37;3.80;;;;;;;5.19;100.00;99626.88;1675383;85;21293;-61
2022/12/13 05:09:35;;;;;;;7.10;3.40;;;;;;;5.20;100.00;99625.91;1674681;84;21292;-66
2022/12/13 05:12:03;;;;;;;7.57;3.70;;;;;;;5.18;100.00;99621.86;1675011;84;21402;-59
2022/12/13 05:14:30;;;;;;;9.47;4.03;;;;;;;5.17;100.00;99619.77;1675368;85;21291;-60
2022/12/13 05:16:59;;;;;;;7.00;3.27;;;;;;;5.19;100.00;99624.76;1675385;85;21266;-59
2022/12/13 05:19:26;;;;;;;10.23;4.97;;;;;;;5.19;100.00;99620.88;1675372;84;21312;-59
2022/12/13 05:21:54;;;;;;;7.67;3.80;;;;;;;5.21;100.00;99613.79;1638952;85;21215;-60
2022/12/13 05:24:22;;;;;;;11.27;5.23;;;;;;;5.24;100.00;99607.81;1646660;86;21136;-60
2022/12/13 05:26:50;;;;;;;10.53;5.00;;;;;;;5.28;100.00;99601.83;1619230;87;21256;-60
2022/12/13 05:29:19;;;;;;;10.57;5.37;;;;;;;5.29;100.00;99600.85;1629421;86;21089;-60
2022/12/13 05:31:46;;;;;;;11.70;5.50;;;;;;;5.28;100.00;99595.37;1628217;86;21761;-64
2022/12/13 05:34:13;;;;;;;9.80;4.97;;;;;;;5.29;100.00;99604.73;1626088;87;22695;-60
2022/12/13 05:36:41;;;;;;;10.80;5.40;;;;;;;5.28;100.00;99610.39;1626552;86;21207;-59
2022/12/13 05:39:09;;;;;;;10.30;5.33;;;;;;;5.26;100.00;99607.14;1626741;86;21296;-60
2022/12/13 05:41:37;;;;;;;11.80;6.10;;;;;;;5.26;100.00;99619.27;1621865;87;21280;-66
2022/12/13 05:44:04;;;;;;;9.63;5.37;;;;;;;5.25;100.00;99617.17;1625770;86;21433;-60
2022/12/13 05:46:32;;;;;;;12.07;5.80;;;;;;;5.27;100.00;99611.85;1628504;87;21614;-61
2022/12/13 05:48:59;;;;;;;12.13;5.30;;;;;;;5.30;100.00;99614.08;1626616;86;21295;-60
2022/12/13 05:51:27;;;;;;;10.13;5.90;;;;;;;5.34;100.00;99608.91;1630222;86;21327;-61
2022/12/13 05:53:54;;;;;;;12.70;7.50;;;;;;;5.37;100.00;99603.41;1630805;86;21413;-66
2022/12/13 05:56:21;;;;;;;43.43;33.77;;;;;;;5.37;100.00;99589.20;1627700;87;21363;-62
2022/12/13 05:58:49;;;;;;;19.73;14.43;;;;;;;5.34;100.00;99585.19;1630762;86;21290;-61
2022/12/13 06:01:16;;;;;;;12.70;7.87;;;;;;;5.36;100.00;99588.89;1626520;86;21160;-62
2022/12/13 06:03:43;;;;;;;11.97;7.77;;;;;;;5.40;100.00;99596.63;1627603;87;22472;-61
2022/12/13 06:06:11;;;;;;;11.83;7.13;;;;;;;5.40;100.00;99606.97;1622599;87;21217;-61
2022/12/13 06:08:38;;;;;;;11.37;6.17;;;;;;;5.40;100.00;99604.87;1628245;87;21438;-60
2022/12/13 06:11:06;;;;;;;12.10;7.27;;;;;;;5.40;100.00;99599.21;1630038;87;21300;-66
2022/12/13 06:13:33;;;;;;;11.50;5.73;;;;;;;5.34;100.00;99581.31;1628386;87;21755;-61
2022/12/13 06:16:03;;;;;;;9.27;5.17;;;;;;;5.32;100.00;99579.36;1623572;87;21910;-63
2022/12/13 06:18:32;;;;;;;7.93;4.60;;;;;;;5.30;100.00;99572.28;1623585;87;22636;-60
2022/12/13 06:21:00;;;;;;;8.83;4.97;;;;;;;5.24;100.00;99566.47;1631117;86;21271;-65
2022/12/13 06:23:29;;;;;;;9.23;5.93;;;;;;;5.10;100.00;99556.31;1626595;86;21376;-63
2022/12/13 06:25:57;;;;;;;12.50;7.17;;;;;;;5.04;100.00;99570.39;1612589;87;21166;-61
2022/12/13 06:28:25;;;;;;;76.63;35.60;;;;;;;5.02;100.00;99566.67;1616275;86;21242;-60
2022/12/13 06:30:53;;;;;;;21.90;12.90;;;;;;;5.01;100.00;99568.94;1619478;86;21821;-60
2022/12/13 06:33:20;;;;;;;21.73;14.03;;;;;;;5.06;100.00;99562.78;1672746;85;21834;-61
2022/12/13 06:35:47;;;;;;;27.07;16.93;;;;;;;5.01;100.00;99557.31;1673943;85;21342;-61
2022/12/13 06:38:14;;;;;;;29.03;17.47;;;;;;;5.00;100.00;99556.17;1668657;84;21347;-60
2022/12/13 06:40:41;;;;;;;31.25;17.27;;;;;;;5.01;100.00;99556.02;1671277;84;21373;-60
2022/12/13 06:43:09;;;;;;;29.20;15.87;;;;;;;5.03;100.00;99569.56;1671529;84;21552;-61
2022/12/13 06:45:39;;;;;;;39.23;20.70;;;;;;;5.10;100.00;99564.55;1670683;85;21239;-65
2022/12/13 06:48:07;;;;;;;57.03;36.83;;;;;;;5.17;100.00;99567.30;1670616;85;21353;-60
2022/12/13 06:50:35;;;;;;;33.77;19.83;;;;;;;5.23;100.00;99566.65;1659749;85;21174;-61
2022/12/13 06:53:03;;;;;;;16.40;9.73;;;;;;;5.29;100.00;99564.67;1656318;85;23058;-60
2022/12/13 06:55:30;;;;;;;13.57;8.23;;;;;;;5.33;100.00;99561.59;1611430;88;21170;-62
2022/12/13 06:57:58;;;;;;;13.47;8.00;;;;;;;5.36;100.00;99557.88;1654549;85;21375;-60
2022/12/13 07:00:26;;;;;;;21.67;12.40;;;;;;;5.37;100.00;99556.41;1655461;84;21645;-60
2022/12/13 07:02:54;;;;;;;12.97;7.77;;;;;;;5.37;100.00;99560.77;1665272;84;21324;-62
2022/12/13 07:05:24;;;;;;;13.30;8.47;;;;;;;5.45;100.00;99559.94;1672269;84;21256;-60
2022/12/13 07:07:51;;;;;;;13.13;8.47;;;;;;;5.46;100.00;99557.20;1618912;86;21308;-61
2022/12/13 07:10:18;;;;;;;14.80;9.17;;;;;;;5.43;100.00;99557.53;1600454;87;21336;-60
2022/12/13 07:12:46;;;;;;;14.30;8.57;;;;;;;5.42;100.00;99558.97;1631691;87;21344;-60
2022/12/13 07:15:13;;;;;;;15.70;9.50;;;;;;;5.39;100.00;99561.42;1631217;86;21458;-61
2022/12/13 07:17:41;;;;;;;19.20;10.73;;;;;;;5.33;100.00;99563.37;1632071;86;21259;-61
2022/12/13 07:20:12;;;;;;;29.47;12.17;;;;;;;5.28;100.00;99566.95;1639485;84;21642;-63
2022/12/13 07:22:40;;;;;;;19.73;9.67;;;;;;;5.29;100.00;99559.50;1675243;85;21238;-62
2022/12/13 07:25:08;;;;;;;15.40;10.43;;;;;;;5.31;100.00;99563.55;1674873;84;21236;-67
2022/12/13 07:27:36;;;;;;;18.83;10.80;;;;;;;5.33;100.00;99565.95;1675349;85;21599;-61
2022/12/13 07:30:04;;;;;;;17.27;10.00;;;;;;;5.35;100.00;99560.14;1674806;84;21268;-61
2022/12/13 07:32:31;;;;;;;17.70;11.27;;;;;;;5.39;100.00;99562.72;1675381;84;21376;-61
2022/12/13 07:34:59;;;;;;;19.63;10.50;;;;;;;5.42;100.00;99571.89;1674948;85;21262;-68
2022/12/13 07:37:26;;;;;;;17.47;10.43;;;;;;;5.41;100.00;99558.66;1675615;85;21590;-61
2022/12/13 07:39:53;;;;;;;16.30;10.07;;;;;;;5.43;100.00;99559.31;1674931;85;21182;-67
2022/12/13 07:42:20;;;;;;;16.47;9.90;;;;;;;5.43;100.00;99558.82;1675387;85;21170;-61
2022/12/13 07:44:48;;;;;;;15.97;10.80;;;;;;;5.46;100.00;99554.62;1675252;84;21274;-68
2022/12/13 07:47:15;;;;;;;18.43;11.30;;;;;;;5.49;100.00;99557.33;1644708;84;21725;-61
2022/12/13 07:49:43;;;;;;;18.73;11.37;;;;;;;5.52;100.00;99564.77;1631559;86;21258;-63
2022/12/13 07:52:11;;;;;;;19.03;11.80;;;;;;;5.54;100.00;99565.41;1631363;86;21208;-62
2022/12/13 07:54:38;;;;;;;18.20;11.83;;;;;;;5.59;100.00;99565.22;1631778;86;21311;-62
2022/12/13 07:57:06;;;;;;;19.83;12.50;;;;;;;5.59;100.00;99556.66;1631205;86;21183;-67
2022/12/13 07:59:33;;;;;;;21.43;13.27;;;;;;;5.57;100.00;99568.47;1631688;87;21395;-61
2022/12/13 08:02:00;;;;;;;19.60;12.67;;;;;;;5.57;100.00;99568.97;1631123;87;21066;-62
2022/12/13 08:04:29;;;;;;;18.23;12.83;;;;;;;5.57;100.00;99576.72;1631701;86;21318;-61
2022/12/13 08:06:57;;;;;;;20.00;12.77;;;;;;;5.59;100.00;99584.61;1640176;84;21402;-63
2022/12/13 08:09:24;;;;;;;17.47;12.17;;;;;;;5.61;100.00;99583.17;1683865;84;21252;-62
2022/12/13 08:11:52;;;;;;;16.80;11.33;;;;;;;5.58;100.00;99571.86;1662015;84;21257;-64
2022/12/13 08:14:19;;;;;;;20.63;12.87;;;;;;;5.53;100.00;99556.86;1659785;85;21285;-61
2022/12/13 08:16:47;;;;;;;20.63;13.00;;;;;;;5.46;100.00;99552.03;1672231;84;21679;-61
2022/12/13 08:19:14;;;;;;;18.80;12.53;;;;;;;5.47;100.00;99547.17;1663384;84;21951;-61
2022/12/13 08:21:41;;;;;;;20.17;12.27;;;;;;;5.47;100.00;99539.91;1673324;85;21411;-61
2022/12/13 08:24:08;;;;;;;20.00;12.97;;;;;;;5.49;100.00;99532.31;1650836;84;21596;-61
2022/12/13 08:26:36;;;;;;;21.17;13.17;;;;;;;5.49;100.00;99530.19;1654440;85;21831;-61
2022/12/13 08:29:03;;;;;;;19.97;13.67;;;;;;;5.49;100.00;99532.78;1654497;85;21601;-67
2022/12/13 08:31:32;;;;;;;20.03;13.70;;;;;;;5.56;100.00;99546.65;1649431;84;22335;-62
2022/12/13 08:33:59;;;;;;;19.93;13.57;;;;;;;5.59;100.00;99548.41;1658217;84;21307;-67
2022/12/13 08:36:28;;;;;;;22.83;15.50;;;;;;;5.63;100.00;99532.08;1653956;86;21297;-61
2022/12/13 08:38:55;;;;;;;19.40;13.13;;;;;;;5.65;100.00;99522.39;1658816;85;21215;-60
2022/12/13 08:41:23;;;;;;;20.23;14.17;;;;;;;5.60;100.00;99515.61;1662062;84;21624;-61
2022/12/13 08:43:50;;;;;;;21.47;13.13;;;;;;;5.55;100.00;99514.83;1675281;85;21897;-60
2022/12/13 08:46:17;;;;;;;21.93;13.87;;;;;;;5.54;100.00;99520.98;1674612;85;21278;-62
2022/12/13 08:48:44;;;;;;;21.50;14.53;;;;;;;5.49;100.00;99526.31;1675179;84;21679;-62
2022/12/13 08:51:22;;;;;;;20.30;13.67;;;;;;;5.48;100.00;99513.88;1675239;84;21333;-63
2022/12/13 08:53:42;;;;;;;21.77;15.17;;;;;;;5.50;100.00;99511.95;1673982;84;21290;-62
2022/12/13 08:56:10;;;;;;;23.73;15.87;;;;;;;5.52;100.00;99486.72;1658838;84;21083;-64
2022/12/13 08:58:38;;;;;;;23.57;14.67;;;;;;;5.60;100.00;99475.05;1673345;85;21284;-60
2022/12/13 09:01:06;;;;;;;17.57;12.60;;;;;;;5.53;100.00;99481.89;1675326;85;21341;-61
2022/12/13 09:03:34;;;;;;;20.77;13.87;;;;;;;5.52;100.00;99482.04;1674548;85;21375;-61
2022/12/13 09:06:13;;;;;;;20.13;14.53;;;;;;;5.46;100.00;99476.27;1675424;85;21270;-61
2022/12/13 09:08:43;;;;;;;21.63;14.63;;;;;;;5.46;100.00;99480.95;1678956;83;40196;-60
2022/12/13 09:11:10;;;;;;;21.87;15.20;;;;;;;5.46;100.00;99490.49;1674676;85;21211;-61
2022/12/13 09:13:38;;;;;;;21.40;13.93;;;;;;;5.47;100.00;99475.30;1675381;85;21295;-61
2022/12/13 09:16:13;;;;;;;16.60;11.93;;;;;;;5.53;100.00;99471.55;1674689;85;21843;-68
2022/12/13 09:18:40;;;;;;;19.93;13.37;;;;;;;5.49;100.00;99474.16;1675445;84;21858;-61
2022/12/13 09:21:08;;;;;;;19.67;12.67;;;;;;;5.45;100.00;99470.77;1674762;84;21273;-65
2022/12/13 09:23:36;;;;;;;20.80;14.17;;;;;;;5.36;100.00;99458.38;1675240;85;21360;-60
2022/12/13 09:26:03;;;;;;;23.23;15.67;;;;;;;5.33;100.00;99450.95;1675019;85;21764;-65
2022/12/13 09:28:30;;;;;;;20.90;15.23;;;;;;;5.32;100.00;99445.48;1675392;84;21842;-60
2022/12/13 09:30:57;;;;;;;21.40;14.47;;;;;;;5.35;100.00;99445.95;1675610;84;21468;-60
2022/12/13 09:33:25;;;;;;;18.77;14.20;;;;;;;5.40;100.00;99433.80;1674607;84;21304;-59
2022/12/13 09:35:52;;;;;;;23.23;15.13;;;;;;;5.35;100.00;99425.77;1675265;85;21310;-60
2022/12/13 09:38:19;;;;;;;18.20;14.27;;;;;;;5.39;100.00;99434.78;1674755;85;21228;-61
2022/12/13 09:40:48;;;;;;;18.33;12.80;;;;;;;5.43;100.00;99426.20;1675204;85;22625;-61
2022/12/13 09:43:21;;;;;;;19.00;13.17;;;;;;;5.41;100.00;99425.06;1675358;85;21794;-67
2022/12/13 09:45:49;;;;;;;19.70;13.33;;;;;;;5.37;100.00;99409.59;1675389;85;21335;-62
2022/12/13 09:48:19;;;;;;;20.87;14.23;;;;;;;5.27;100.00;99407.23;1674754;85;21178;-61
2022/12/13 09:50:46;;;;;;;17.83;13.13;;;;;;;5.21;100.00;99409.67;1675351;85;21192;-60
2022/12/13 09:53:15;;;;;;;20.27;15.00;;;;;;;5.19;100.00;99399.98;1675583;85;21247;-68
2022/12/13 09:55:48;;;;;;;22.90;14.97;;;;;;;5.15;100.00;99401.30;1675293;85;21941;-60
2022/12/13 09:58:25;;;;;;;23.63;15.83;;;;;;;5.12;100.00;99401.97;1668472;84;22507;-61
2022/12/13 10:00:53;;;;;;;26.57;17.70;;;;;;;5.18;100.00;99395.31;1654988;85;21257;-62
2022/12/13 10:03:21;;;;;;;22.90;15.93;;;;;;;5.18;100.00;99391.44;1665930;85;21227;-61
2022/12/13 10:05:59;;;;;;;24.50;15.80;;;;;;;5.18;100.00;99376.42;1675097;84;21864;-64
2022/12/13 10:08:32;;;;;;;21.17;15.50;;;;;;;5.16;100.00;99382.27;1672263;84;21424;-59
2022/12/13 10:10:59;;;;;;;22.55;15.05;;;;;;;5.08;100.00;99385.69;1675729;84;21251;-68
2022/12/13 10:13:38;;;;;;;25.00;18.07;;;;;;;5.01;100.00;99401.05;1675171;84;21000;-59
2022/12/13 10:16:27;;;;;;;23.87;16.57;;;;;;;4.95;100.00;99385.41;1675474;84;21388;-59
2022/12/13 10:18:55;;;;;;;23.13;16.13;;;;;;;4.91;100.00;99396.56;1674818;84;21226;-60
2022/12/13 10:21:38;;;;;;;25.40;17.27;;;;;;;4.87;100.00;99390.13;1674858;84;21438;-62
2022/12/13 10:24:26;;;;;;;29.07;17.43;;;;;;;4.88;100.00;99380.11;1672495;84;21265;-62
2022/12/13 10:26:54;;;;;;;22.07;15.77;;;;;;;4.87;100.00;99387.05;1666736;84;21645;-63
2022/12/13 10:29:21;;;;;;;24.17;16.23;;;;;;;4.90;100.00;99376.08;1662064;85;21159;-63
2022/12/13 10:31:51;;;;;;;23.30;16.90;;;;;;;4.88;100.00;99378.81;1685483;85;21707;-61
2022/12/13 10:34:29;;;;;;;26.60;16.57;;;;;;;4.86;100.00;99376.41;1685497;83;21459;-69
2022/12/13 10:36:58;;;;;;;24.37;15.60;;;;;;;4.88;100.00;99373.65;1685489;85;21348;-62
2022/12/13 10:39:39;;;;;;;24.80;15.63;;;;;;;4.86;100.00;99363.99;1685472;85;21306;-62
2022/12/13 10:42:13;;;;;;;25.45;16.95;;;;;;;4.88;100.00;99350.41;1685521;85;21029;-67
2022/12/13 10:44:40;;;;;;;21.60;14.60;;;;;;;4.85;100.00;99337.86;1685503;85;21158;-63
2022/12/13 10:47:19;;;;;;;24.17;17.10;;;;;;;4.86;100.00;99320.09;1685651;85;21995;-60
2022/12/13 10:49:54;;;;;;;27.10;17.92;;;;;;;4.82;100.00;99326.08;1685171;85;21342;-73
2022/12/13 10:52:30;;;;;;;28.77;19.20;;;;;;;4.81;100.00;99334.81;1685090;85;21020;-61
2022/12/13 10:55:01;;;;;;;33.73;23.20;;;;;;;4.78;100.00;99324.81;1685662;83;21966;-62
2022/12/13 10:57:29;;;;;;;25.52;18.00;;;;;;;4.80;100.00;99320.76;1685105;83;21907;-72
2022/12/13 10:59:57;;;;;;;29.47;19.37;;;;;;;4.81;100.00;99309.45;1685050;85;22446;-71
2022/12/13 11:02:36;;;;;;;26.57;17.10;;;;;;;4.81;100.00;99308.16;1685340;84;21520;-64
2022/12/13 11:05:27;;;;;;;24.60;16.73;;;;;;;4.81;100.00;99306.86;1684693;85;21708;-61
2022/12/13 11:07:55;;;;;;;26.97;18.62;;;;;;;4.82;100.00;99309.79;1683629;85;21346;-61
2022/12/13 11:10:26;;;;;;;24.93;17.80;;;;;;;4.83;100.00;99306.22;1684738;85;21085;-64
2022/12/13 11:13:02;;;;;;;29.02;18.67;;;;;;;4.83;100.00;99301.06;1685730;85;21387;-70
2022/12/13 11:15:29;;;;;;;27.77;19.30;;;;;;;4.85;100.00;99290.09;1685531;83;21267;-61
2022/12/13 11:20:57;;;;;;;37.13;19.43;;;;;;;4.83;100.00;99285.08;1706979;84;21124;-67
2022/12/13 11:23:37;;;;;;;27.30;19.77;;;;;;;4.87;100.00;99279.89;1706802;84;21326;-60
2022/12/13 11:26:10;;;;;;;28.07;19.37;;;;;;;4.87;100.00;99264.39;1707948;84;21034;-60
2022/12/13 11:29:22;;;;;;;30.35;19.10;;;;;;;4.84;100.00;99262.64;1706710;82;22166;-62
2022/12/13 11:32:10;;;;;;;27.37;19.63;;;;;;;4.84;100.00;99263.93;1707713;82;21500;-69
2022/12/13 11:35:03;;;;;;;24.67;17.10;;;;;;;4.83;100.00;99253.30;1707447;83;21512;-63
2022/12/13 11:37:41;;;;;;;25.37;17.70;;;;;;;4.83;100.00;99240.38;1706506;84;21129;-64
2022/12/13 11:40:16;;;;;;;25.83;18.17;;;;;;;4.82;100.00;99235.71;1706843;84;21881;-63
2022/12/13 11:42:48;;;;;;;28.60;19.93;;;;;;;4.81;100.00;99219.91;1706986;83;21614;-62
2022/12/13 11:45:30;;;;;;;26.47;20.63;;;;;;;4.81;100.00;99189.39;1706411;83;21255;-61
2022/12/13 11:48:18;;;;;;;22.50;16.33;;;;;;;4.79;100.00;99192.65;1706570;84;21330;-60
2022/12/13 11:50:47;;;;;;;22.27;15.47;;;;;;;4.80;100.00;99202.79;1705931;84;21260;-62